sensor_id;sensor_type;location;lat;lon;timestamp;pressure;altitude;pressure_sealevel;temperature;humidity
8340;BME280;4207;49.314;7.162;2024-03-29T00:00:43;96086.34;;;8.24;58.52
8340;BME280;4207;49.314;7.162;2024-03-29T00:03:10;96092.63;;;8.36;57.48
8340;BME280;4207;49.314;7.162;2024-03-29T00:05:36;96088.34;;;8.18;58.03
8340;BME280;4207;49.314;7.162;2024-03-29T00:08:03;96071.47;;;7.97;59.76
8340;BME280;4207;49.314;7.162;2024-03-29T00:10:29;96059.03;;;8.06;59.27
8340;BME280;4207;49.314;7.162;2024-03-29T00:12:57;96058.50;;;7.87;60.73
8340;BME280;4207;49.314;7.162;2024-03-29T00:15:23;96050.47;;;8.09;56.88
8340;BME280;4207;49.314;7.162;2024-03-29T00:17:49;96054.16;;;7.91;58.36
8340;BME280;4207;49.314;7.162;2024-03-29T00:20:15;96041.38;;;7.84;60.17
8340;BME280;4207;49.314;7.162;2024-03-29T00:22:41;96021.44;;;7.87;58.94
8340;BME280;4207;49.314;7.162;2024-03-29T00:25:07;96026.00;;;8.04;58.51
8340;BME280;4207;49.314;7.162;2024-03-29T00:27:33;96035.31;;;8.01;56.86
8340;BME280;4207;49.314;7.162;2024-03-29T00:30:01;96034.88;;;8.08;58.90
8340;BME280;4207;49.314;7.162;2024-03-29T00:32:27;96006.22;;;8.10;57.40
8340;BME280;4207;49.314;7.162;2024-03-29T00:34:53;96001.91;;;8.39;55.74
8340;BME280;4207;49.314;7.162;2024-03-29T00:37:19;95994.25;;;8.12;60.24
8340;BME280;4207;49.314;7.162;2024-03-29T00:39:45;95987.22;;;8.08;58.40
8340;BME280;4207;49.314;7.162;2024-03-29T00:42:11;95981.75;;;8.04;59.82
8340;BME280;4207;49.314;7.162;2024-03-29T00:44:37;95984.72;;;8.03;59.08
8340;BME280;4207;49.314;7.162;2024-03-29T00:47:05;95973.50;;;7.97;60.86
8340;BME280;4207;49.314;7.162;2024-03-29T00:49:31;95958.56;;;8.10;57.66
8340;BME280;4207;49.314;7.162;2024-03-29T00:51:57;95961.84;;;8.15;58.63
8340;BME280;4207;49.314;7.162;2024-03-29T00:54:23;95952.00;;;8.16;58.80
8340;BME280;4207;49.314;7.162;2024-03-29T00:56:49;95954.50;;;8.12;59.30
8340;BME280;4207;49.314;7.162;2024-03-29T00:59:15;95960.88;;;8.11;60.92
8340;BME280;4207;49.314;7.162;2024-03-29T01:01:41;95980.50;;;8.19;59.40
8340;BME280;4207;49.314;7.162;2024-03-29T01:04:11;95987.09;;;8.21;59.83
8340;BME280;4207;49.314;7.162;2024-03-29T01:06:37;96004.06;;;8.20;59.63
8340;BME280;4207;49.314;7.162;2024-03-29T01:09:04;96014.47;;;8.17;59.79
8340;BME280;4207;49.314;7.162;2024-03-29T01:11:30;96013.25;;;8.14;60.70
8340;BME280;4207;49.314;7.162;2024-03-29T01:13:56;96009.66;;;8.19;60.46
8340;BME280;4207;49.314;7.162;2024-03-29T01:16:22;95999.53;;;8.12;61.30
8340;BME280;4207;49.314;7.162;2024-03-29T01:18:48;95991.91;;;8.28;60.48
8340;BME280;4207;49.314;7.162;2024-03-29T01:21:15;95994.09;;;8.26;61.04
8340;BME280;4207;49.314;7.162;2024-03-29T01:23:41;95981.47;;;8.23;61.37
8340;BME280;4207;49.314;7.162;2024-03-29T01:26:08;95981.91;;;8.25;61.12
8340;BME280;4207;49.314;7.162;2024-03-29T01:28:34;95962.75;;;8.19;61.68
8340;BME280;4207;49.314;7.162;2024-03-29T01:31:00;95963.69;;;8.23;60.28
8340;BME280;4207;49.314;7.162;2024-03-29T01:33:25;95958.41;;;8.40;59.46
8340;BME280;4207;49.314;7.162;2024-03-29T01:35:52;95965.13;;;8.46;58.58
8340;BME280;4207;49.314;7.162;2024-03-29T01:38:20;95963.88;;;8.35;59.22
8340;BME280;4207;49.314;7.162;2024-03-29T01:40:46;95959.19;;;8.49;58.65
8340;BME280;4207;49.314;7.162;2024-03-29T01:43:11;95939.53;;;8.50;58.54
8340;BME280;4207;49.314;7.162;2024-03-29T01:45:39;95957.00;;;8.43;58.60
8340;BME280;4207;49.314;7.162;2024-03-29T01:48:06;95941.28;;;8.46;58.89
8340;BME280;4207;49.314;7.162;2024-03-29T01:50:33;95943.59;;;8.39;59.45
8340;BME280;4207;49.314;7.162;2024-03-29T01:53:01;95948.28;;;8.34;60.45
8340;BME280;4207;49.314;7.162;2024-03-29T01:55:30;95956.22;;;8.42;59.11
8340;BME280;4207;49.314;7.162;2024-03-29T01:57:57;95969.31;;;8.47;59.86
8340;BME280;4207;49.314;7.162;2024-03-29T02:00:25;95980.69;;;8.39;59.56
8340;BME280;4207;49.314;7.162;2024-03-29T02:02:56;95982.44;;;8.44;60.29
8340;BME280;4207;49.314;7.162;2024-03-29T02:05:24;95990.84;;;8.55;59.65
8340;BME280;4207;49.314;7.162;2024-03-29T02:07:51;95990.84;;;8.37;59.83
8340;BME280;4207;49.314;7.162;2024-03-29T02:10:19;95978.03;;;8.22;59.68
8340;BME280;4207;49.314;7.162;2024-03-29T02:12:47;95984.28;;;8.43;59.39
8340;BME280;4207;49.314;7.162;2024-03-29T02:15:14;95995.81;;;8.65;59.30
8340;BME280;4207;49.314;7.162;2024-03-29T02:17:42;95993.03;;;8.52;60.66
8340;BME280;4207;49.314;7.162;2024-03-29T02:20:10;95985.09;;;8.44;61.61
8340;BME280;4207;49.314;7.162;2024-03-29T02:22:41;95993.66;;;8.32;62.39
8340;BME280;4207;49.314;7.162;2024-03-29T02:25:14;95989.75;;;8.64;59.94
8340;BME280;4207;49.314;7.162;2024-03-29T02:27:41;95976.66;;;8.42;62.78
8340;BME280;4207;49.314;7.162;2024-03-29T02:30:13;95987.72;;;8.44;62.12
8340;BME280;4207;49.314;7.162;2024-03-29T02:32:40;95990.84;;;8.29;63.06
8340;BME280;4207;49.314;7.162;2024-03-29T02:35:07;95992.84;;;8.23;64.03
8340;BME280;4207;49.314;7.162;2024-03-29T02:37:35;95988.81;;;8.34;62.25
8340;BME280;4207;49.314;7.162;2024-03-29T02:40:02;95984.47;;;8.47;63.98
8340;BME280;4207;49.314;7.162;2024-03-29T02:42:31;95996.13;;;8.37;63.61
8340;BME280;4207;49.314;7.162;2024-03-29T02:44:58;95999.53;;;8.04;65.30
8340;BME280;4207;49.314;7.162;2024-03-29T02:47:27;96012.25;;;7.93;66.53
8340;BME280;4207;49.314;7.162;2024-03-29T02:49:54;96000.88;;;7.84;68.53
8340;BME280;4207;49.314;7.162;2024-03-29T02:52:20;95988.13;;;7.94;66.90
8340;BME280;4207;49.314;7.162;2024-03-29T02:54:47;95981.88;;;7.82;68.75
8340;BME280;4207;49.314;7.162;2024-03-29T02:57:12;95992.31;;;7.95;67.77
8340;BME280;4207;49.314;7.162;2024-03-29T02:59:41;96000.00;;;8.14;68.67
8340;BME280;4207;49.314;7.162;2024-03-29T03:02:07;96014.03;;;8.15;70.09
8340;BME280;4207;49.314;7.162;2024-03-29T03:04:34;96021.66;;;8.25;69.84
8340;BME280;4207;49.314;7.162;2024-03-29T03:06:59;96030.22;;;8.22;70.42
8340;BME280;4207;49.314;7.162;2024-03-29T03:09:52;96044.91;;;8.36;69.93
8340;BME280;4207;49.314;7.162;2024-03-29T03:12:40;96066.28;;;8.31;71.74
8340;BME280;4207;49.314;7.162;2024-03-29T03:15:08;96061.25;;;8.21;72.66
8340;BME280;4207;49.314;7.162;2024-03-29T03:17:35;96064.66;;;8.13;71.73
8340;BME280;4207;49.314;7.162;2024-03-29T03:20:02;96061.19;;;7.95;72.99
8340;BME280;4207;49.314;7.162;2024-03-29T03:22:30;96068.97;;;7.92;73.99
8340;BME280;4207;49.314;7.162;2024-03-29T03:24:57;96059.22;;;7.70;76.41
8340;BME280;4207;49.314;7.162;2024-03-29T03:27:23;96064.69;;;7.74;75.13
8340;BME280;4207;49.314;7.162;2024-03-29T03:29:50;96052.69;;;7.68;76.98
8340;BME280;4207;49.314;7.162;2024-03-29T03:32:18;96057.53;;;7.66;77.04
8340;BME280;4207;49.314;7.162;2024-03-29T03:34:45;96055.19;;;7.73;76.77
8340;BME280;4207;49.314;7.162;2024-03-29T03:37:10;96044.94;;;7.80;77.15
8340;BME280;4207;49.314;7.162;2024-03-29T03:39:37;96052.09;;;7.79;77.14
8340;BME280;4207;49.314;7.162;2024-03-29T03:42:04;96058.00;;;7.76;77.60
8340;BME280;4207;49.314;7.162;2024-03-29T03:44:31;96041.50;;;7.71;79.04
8340;BME280;4207;49.314;7.162;2024-03-29T03:46:57;96037.19;;;7.83;78.71
8340;BME280;4207;49.314;7.162;2024-03-29T03:49:25;96040.75;;;7.87;77.92
8340;BME280;4207;49.314;7.162;2024-03-29T03:51:51;96033.72;;;7.74;79.16
8340;BME280;4207;49.314;7.162;2024-03-29T03:54:17;96030.94;;;7.79;79.06
8340;BME280;4207;49.314;7.162;2024-03-29T03:56:43;96037.31;;;7.78;79.41
8340;BME280;4207;49.314;7.162;2024-03-29T03:59:10;96033.25;;;7.81;79.44
8340;BME280;4207;49.314;7.162;2024-03-29T04:01:36;96029.69;;;7.77;80.14
8340;BME280;4207;49.314;7.162;2024-03-29T04:04:03;96038.09;;;7.87;80.54
8340;BME280;4207;49.314;7.162;2024-03-29T04:06:30;96023.63;;;7.85;80.27
8340;BME280;4207;49.314;7.162;2024-03-29T04:08:57;96034.06;;;7.90;79.76
8340;BME280;4207;49.314;7.162;2024-03-29T04:11:23;96032.53;;;7.89;80.47
8340;BME280;4207;49.314;7.162;2024-03-29T04:13:50;96024.25;;;7.90;80.47
8340;BME280;4207;49.314;7.162;2024-03-29T04:16:16;96020.81;;;7.90;80.99
8340;BME280;4207;49.314;7.162;2024-03-29T04:18:43;96019.56;;;7.87;80.99
8340;BME280;4207;49.314;7.162;2024-03-29T04:21:08;96016.47;;;7.94;80.87
8340;BME280;4207;49.314;7.162;2024-03-29T04:23:37;96019.13;;;7.94;81.37
8340;BME280;4207;49.314;7.162;2024-03-29T04:26:03;96021.44;;;7.87;82.06
8340;BME280;4207;49.314;7.162;2024-03-29T04:28:30;96027.53;;;7.87;82.04
8340;BME280;4207;49.314;7.162;2024-03-29T04:30:57;96019.91;;;7.86;82.30
8340;BME280;4207;49.314;7.162;2024-03-29T04:33:25;96016.47;;;7.85;82.25
8340;BME280;4207;49.314;7.162;2024-03-29T04:35:53;96015.06;;;7.88;83.08
8340;BME280;4207;49.314;7.162;2024-03-29T04:38:20;96012.91;;;7.98;82.30
8340;BME280;4207;49.314;7.162;2024-03-29T04:40:50;96008.22;;;7.95;83.05
8340;BME280;4207;49.314;7.162;2024-03-29T04:43:17;96013.06;;;7.93;82.44
8340;BME280;4207;49.314;7.162;2024-03-29T04:45:44;96014.91;;;7.93;83.07
8340;BME280;4207;49.314;7.162;2024-03-29T04:48:11;96023.16;;;7.83;82.40
8340;BME280;4207;49.314;7.162;2024-03-29T04:50:38;96013.97;;;7.80;82.91
8340;BME280;4207;49.314;7.162;2024-03-29T04:53:07;96008.34;;;7.82;82.82
8340;BME280;4207;49.314;7.162;2024-03-29T04:55:34;96012.41;;;7.79;83.02
8340;BME280;4207;49.314;7.162;2024-03-29T04:58:02;96004.47;;;7.88;82.73
8340;BME280;4207;49.314;7.162;2024-03-29T05:00:29;96006.28;;;7.70;83.10
8340;BME280;4207;49.314;7.162;2024-03-29T05:02:56;95998.50;;;7.65;82.92
8340;BME280;4207;49.314;7.162;2024-03-29T05:05:23;96008.47;;;7.68;83.40
8340;BME280;4207;49.314;7.162;2024-03-29T05:07:49;96006.13;;;7.67;83.42
8340;BME280;4207;49.314;7.162;2024-03-29T05:10:16;96022.59;;;7.55;83.93
8340;BME280;4207;49.314;7.162;2024-03-29T05:12:44;96029.25;;;7.44;84.00
8340;BME280;4207;49.314;7.162;2024-03-29T05:15:12;96030.50;;;7.47;83.54
8340;BME280;4207;49.314;7.162;2024-03-29T05:17:39;96057.59;;;7.52;84.71
8340;BME280;4207;49.314;7.162;2024-03-29T05:20:07;96053.91;;;7.62;83.79
8340;BME280;4207;49.314;7.162;2024-03-29T05:22:35;96061.28;;;7.73;83.51
8340;BME280;4207;49.314;7.162;2024-03-29T05:25:02;96070.16;;;7.69;83.26
8340;BME280;4207;49.314;7.162;2024-03-29T05:27:29;96067.53;;;7.77;83.55
8340;BME280;4207;49.314;7.162;2024-03-29T05:29:56;96066.88;;;7.72;83.29
8340;BME280;4207;49.314;7.162;2024-03-29T05:32:24;96065.50;;;7.74;82.82
8340;BME280;4207;49.314;7.162;2024-03-29T05:34:51;96065.06;;;7.89;82.55
8340;BME280;4207;49.314;7.162;2024-03-29T05:37:18;96070.63;;;7.79;82.69
8340;BME280;4207;49.314;7.162;2024-03-29T05:39:45;96070.56;;;7.62;83.30
8340;BME280;4207;49.314;7.162;2024-03-29T05:42:13;96075.09;;;7.62;83.92
8340;BME280;4207;49.314;7.162;2024-03-29T05:44:39;96081.38;;;7.74;83.51
8340;BME280;4207;49.314;7.162;2024-03-29T05:47:06;96069.19;;;7.65;83.50
8340;BME280;4207;49.314;7.162;2024-03-29T05:49:34;96071.84;;;7.73;83.55
8340;BME280;4207;49.314;7.162;2024-03-29T05:52:01;96077.66;;;7.84;82.30
8340;BME280;4207;49.314;7.162;2024-03-29T05:54:28;96081.66;;;7.73;83.64
8340;BME280;4207;49.314;7.162;2024-03-29T05:56:55;96076.47;;;7.59;83.29
8340;BME280;4207;49.314;7.162;2024-03-29T05:59:22;96083.03;;;7.62;83.66
8340;BME280;4207;49.314;7.162;2024-03-29T06:01:49;96081.66;;;7.73;83.33
8340;BME280;4207;49.314;7.162;2024-03-29T06:04:15;96074.75;;;7.63;82.57
8340;BME280;4207;49.314;7.162;2024-03-29T06:06:46;96069.78;;;7.62;82.92
8340;BME280;4207;49.314;7.162;2024-03-29T06:09:13;96072.59;;;7.57;82.94
8340;BME280;4207;49.314;7.162;2024-03-29T06:11:40;96073.97;;;7.54;82.82
8340;BME280;4207;49.314;7.162;2024-03-29T06:14:06;96081.94;;;7.63;82.20
8340;BME280;4207;49.314;7.162;2024-03-29T06:16:51;96084.38;;;7.51;82.32
8340;BME280;4207;49.314;7.162;2024-03-29T06:19:35;96089.31;;;7.44;82.97
8340;BME280;4207;49.314;7.162;2024-03-29T06:22:03;96094.19;;;7.50;83.00
8340;BME280;4207;49.314;7.162;2024-03-29T06:24:30;96085.50;;;7.58;82.96
8340;BME280;4207;49.314;7.162;2024-03-29T06:26:58;96097.59;;;7.51;83.22
8340;BME280;4207;49.314;7.162;2024-03-29T06:29:25;96103.72;;;7.60;83.16
8340;BME280;4207;49.314;7.162;2024-03-29T06:31:52;96106.38;;;7.60;82.58
8340;BME280;4207;49.314;7.162;2024-03-29T06:34:19;96106.38;;;7.60;82.44
8340;BME280;4207;49.314;7.162;2024-03-29T06:36:46;96099.28;;;7.47;82.98
8340;BME280;4207;49.314;7.162;2024-03-29T06:39:14;96105.19;;;7.44;83.24
8340;BME280;4207;49.314;7.162;2024-03-29T06:41:42;96110.53;;;7.52;82.99
8340;BME280;4207;49.314;7.162;2024-03-29T06:44:09;96104.31;;;7.26;83.54
8340;BME280;4207;49.314;7.162;2024-03-29T06:46:36;96093.13;;;7.29;84.01
8340;BME280;4207;49.314;7.162;2024-03-29T06:49:03;96098.59;;;7.32;84.25
8340;BME280;4207;49.314;7.162;2024-03-29T06:51:31;96085.88;;;7.43;83.94
8340;BME280;4207;49.314;7.162;2024-03-29T06:53:58;96082.94;;;7.45;84.54
8340;BME280;4207;49.314;7.162;2024-03-29T06:56:27;96077.03;;;7.48;83.84
8340;BME280;4207;49.314;7.162;2024-03-29T06:58:55;96074.72;;;7.55;84.05
8340;BME280;4207;49.314;7.162;2024-03-29T07:01:21;96075.50;;;7.55;83.76
8340;BME280;4207;49.314;7.162;2024-03-29T07:03:48;96076.22;;;7.38;83.82
8340;BME280;4207;49.314;7.162;2024-03-29T07:06:15;96081.19;;;7.40;84.38
8340;BME280;4207;49.314;7.162;2024-03-29T07:08:42;96084.41;;;7.28;84.95
8340;BME280;4207;49.314;7.162;2024-03-29T07:11:09;96076.22;;;7.38;84.45
8340;BME280;4207;49.314;7.162;2024-03-29T07:13:37;96076.34;;;7.33;85.15
8340;BME280;4207;49.314;7.162;2024-03-29T07:16:04;96087.03;;;7.28;85.86
8340;BME280;4207;49.314;7.162;2024-03-29T07:18:32;96082.59;;;7.37;85.43
8340;BME280;4207;49.314;7.162;2024-03-29T07:20:59;96084.34;;;7.42;85.82
8340;BME280;4207;49.314;7.162;2024-03-29T07:23:26;96077.69;;;7.53;86.07
8340;BME280;4207;49.314;7.162;2024-03-29T07:26:00;96078.44;;;7.84;84.79
8340;BME280;4207;49.314;7.162;2024-03-29T07:28:27;96079.69;;;7.87;84.14
8340;BME280;4207;49.314;7.162;2024-03-29T07:30:56;96087.97;;;7.94;83.99
8340;BME280;4207;49.314;7.162;2024-03-29T07:33:24;96084.72;;;7.97;82.87
8340;BME280;4207;49.314;7.162;2024-03-29T07:35:52;96080.44;;;7.79;84.15
8340;BME280;4207;49.314;7.162;2024-03-29T07:38:19;96091.38;;;7.86;84.03
8340;BME280;4207;49.314;7.162;2024-03-29T07:40:46;96098.38;;;7.82;84.39
8340;BME280;4207;49.314;7.162;2024-03-29T07:43:13;96090.75;;;7.80;84.85
8340;BME280;4207;49.314;7.162;2024-03-29T07:45:40;96103.84;;;7.85;85.10
8340;BME280;4207;49.314;7.162;2024-03-29T07:48:12;96101.81;;;7.91;84.29
8340;BME280;4207;49.314;7.162;2024-03-29T07:50:39;96106.06;;;8.01;84.11
8340;BME280;4207;49.314;7.162;2024-03-29T07:53:06;96114.28;;;7.90;84.00
8340;BME280;4207;49.314;7.162;2024-03-29T07:55:35;96108.06;;;7.86;85.24
8340;BME280;4207;49.314;7.162;2024-03-29T07:58:02;96114.44;;;7.94;84.98
8340;BME280;4207;49.314;7.162;2024-03-29T08:00:31;96123.00;;;7.91;84.67
8340;BME280;4207;49.314;7.162;2024-03-29T08:02:58;96126.47;;;8.00;85.13
8340;BME280;4207;49.314;7.162;2024-03-29T08:05:26;96123.16;;;7.86;85.18
8340;BME280;4207;49.314;7.162;2024-03-29T08:07:53;96138.22;;;7.77;86.65
8340;BME280;4207;49.314;7.162;2024-03-29T08:10:20;96128.16;;;7.96;85.73
8340;BME280;4207;49.314;7.162;2024-03-29T08:12:47;96133.31;;;8.01;85.64
8340;BME280;4207;49.314;7.162;2024-03-29T08:15:14;96139.56;;;8.05;85.44
8340;BME280;4207;49.314;7.162;2024-03-29T08:17:43;96141.19;;;8.23;85.86
8340;BME280;4207;49.314;7.162;2024-03-29T08:20:10;96138.19;;;8.16;86.00
8340;BME280;4207;49.314;7.162;2024-03-29T08:22:39;96138.16;;;8.08;86.12
8340;BME280;4207;49.314;7.162;2024-03-29T08:25:06;96145.94;;;8.35;85.18
8340;BME280;4207;49.314;7.162;2024-03-29T08:27:34;96147.25;;;8.15;86.39
8340;BME280;4207;49.314;7.162;2024-03-29T08:30:01;96149.72;;;8.60;84.06
8340;BME280;4207;49.314;7.162;2024-03-29T08:32:28;96155.94;;;8.55;83.59
8340;BME280;4207;49.314;7.162;2024-03-29T08:34:56;96155.91;;;8.38;84.33
8340;BME280;4207;49.314;7.162;2024-03-29T08:37:23;96161.56;;;8.62;83.93
8340;BME280;4207;49.314;7.162;2024-03-29T08:39:51;96161.41;;;8.50;83.86
8340;BME280;4207;49.314;7.162;2024-03-29T08:42:18;96161.50;;;8.36;85.60
8340;BME280;4207;49.314;7.162;2024-03-29T08:44:45;96156.09;;;8.41;85.83
8340;BME280;4207;49.314;7.162;2024-03-29T08:47:12;96169.19;;;8.46;85.44
8340;BME280;4207;49.314;7.162;2024-03-29T08:49:39;96185.78;;;8.78;84.22
8340;BME280;4207;49.314;7.162;2024-03-29T08:52:06;96176.56;;;8.67;85.20
8340;BME280;4207;49.314;7.162;2024-03-29T08:54:33;96178.72;;;8.56;84.99
8340;BME280;4207;49.314;7.162;2024-03-29T08:57:01;96182.75;;;8.53;86.83
8340;BME280;4207;49.314;7.162;2024-03-29T08:59:29;96186.34;;;8.58;87.08
8340;BME280;4207;49.314;7.162;2024-03-29T09:02:03;96192.00;;;8.73;86.25
8340;BME280;4207;49.314;7.162;2024-03-29T09:04:31;96190.72;;;8.71;87.44
8340;BME280;4207;49.314;7.162;2024-03-29T09:06:59;96199.22;;;8.90;86.90
8340;BME280;4207;49.314;7.162;2024-03-29T09:09:27;96213.25;;;8.90;86.66
8340;BME280;4207;49.314;7.162;2024-03-29T09:11:54;96205.13;;;8.87;87.19
8340;BME280;4207;49.314;7.162;2024-03-29T09:14:23;96207.00;;;8.86;87.58
8340;BME280;4207;49.314;7.162;2024-03-29T09:16:50;96209.66;;;9.03;86.77
8340;BME280;4207;49.314;7.162;2024-03-29T09:19:18;96208.88;;;9.12;87.34
8340;BME280;4207;49.314;7.162;2024-03-29T09:21:45;96213.56;;;9.23;87.31
8340;BME280;4207;49.314;7.162;2024-03-29T09:24:12;96216.72;;;9.25;87.16
8340;BME280;4207;49.314;7.162;2024-03-29T09:26:38;96219.81;;;9.27;87.02
8340;BME280;4207;49.314;7.162;2024-03-29T09:29:07;96213.91;;;9.30;87.51
8340;BME280;4207;49.314;7.162;2024-03-29T09:31:35;96216.09;;;9.45;88.10
8340;BME280;4207;49.314;7.162;2024-03-29T09:34:02;96215.75;;;9.55;87.17
8340;BME280;4207;49.314;7.162;2024-03-29T09:36:29;96224.03;;;9.62;87.59
8340;BME280;4207;49.314;7.162;2024-03-29T09:38:56;96232.00;;;9.62;87.85
8340;BME280;4207;49.314;7.162;2024-03-29T09:41:25;96230.56;;;9.82;87.40
8340;BME280;4207;49.314;7.162;2024-03-29T09:43:54;96236.81;;;9.78;87.63
8340;BME280;4207;49.314;7.162;2024-03-29T09:46:25;96243.22;;;9.85;87.47
8340;BME280;4207;49.314;7.162;2024-03-29T09:48:55;96240.34;;;9.99;87.69
8340;BME280;4207;49.314;7.162;2024-03-29T09:51:22;96236.13;;;10.06;87.37
8340;BME280;4207;49.314;7.162;2024-03-29T09:53:50;96224.72;;;10.06;87.17
8340;BME280;4207;49.314;7.162;2024-03-29T09:56:17;96227.38;;;10.14;87.11
8340;BME280;4207;49.314;7.162;2024-03-29T09:58:44;96229.72;;;10.16;87.70
8340;BME280;4207;49.314;7.162;2024-03-29T10:01:11;96209.34;;;10.29;87.64
8340;BME280;4207;49.314;7.162;2024-03-29T10:03:40;96211.66;;;10.39;87.45
8340;BME280;4207;49.314;7.162;2024-03-29T10:06:09;96202.53;;;10.48;87.68
8340;BME280;4207;49.314;7.162;2024-03-29T10:08:38;96200.63;;;10.57;87.42
8340;BME280;4207;49.314;7.162;2024-03-29T10:11:05;96213.06;;;10.65;87.82
8340;BME280;4207;49.314;7.162;2024-03-29T10:13:32;96200.56;;;10.66;87.79
8340;BME280;4207;49.314;7.162;2024-03-29T10:16:00;96194.66;;;10.60;87.65
8340;BME280;4207;49.314;7.162;2024-03-29T10:18:28;96194.78;;;10.64;87.42
8340;BME280;4207;49.314;7.162;2024-03-29T10:21:00;96187.97;;;10.54;87.59
8340;BME280;4207;49.314;7.162;2024-03-29T10:23:30;96189.66;;;10.59;87.84
8340;BME280;4207;49.314;7.162;2024-03-29T10:25:57;96187.59;;;10.64;87.26
8340;BME280;4207;49.314;7.162;2024-03-29T10:28:30;96192.97;;;10.56;87.97
8340;BME280;4207;49.314;7.162;2024-03-29T10:30:58;96203.88;;;10.63;87.82
8340;BME280;4207;49.314;7.162;2024-03-29T10:33:27;96214.19;;;10.64;87.37
8340;BME280;4207;49.314;7.162;2024-03-29T10:35:54;96217.03;;;10.59;88.11
8340;BME280;4207;49.314;7.162;2024-03-29T10:38:24;96229.69;;;10.62;87.64
8340;BME280;4207;49.314;7.162;2024-03-29T10:40:53;96247.88;;;10.52;87.12
8340;BME280;4207;49.314;7.162;2024-03-29T10:43:20;96251.59;;;10.59;87.39
8340;BME280;4207;49.314;7.162;2024-03-29T10:45:48;96234.78;;;10.47;87.66
8340;BME280;4207;49.314;7.162;2024-03-29T10:48:16;96228.97;;;10.53;87.29
8340;BME280;4207;49.314;7.162;2024-03-29T10:50:46;96238.63;;;10.58;86.80
8340;BME280;4207;49.314;7.162;2024-03-29T10:53:16;96257.00;;;10.71;87.22
8340;BME280;4207;49.314;7.162;2024-03-29T10:55:43;96263.72;;;10.77;86.83
8340;BME280;4207;49.314;7.162;2024-03-29T10:58:12;96256.22;;;10.80;86.54
8340;BME280;4207;49.314;7.162;2024-03-29T11:00:44;96256.72;;;10.73;86.30
8340;BME280;4207;49.314;7.162;2024-03-29T11:03:14;96257.19;;;10.66;86.51
8340;BME280;4207;49.314;7.162;2024-03-29T11:05:47;96258.44;;;10.69;87.34
8340;BME280;4207;49.314;7.162;2024-03-29T11:08:19;96265.47;;;10.73;86.52
8340;BME280;4207;49.314;7.162;2024-03-29T11:10:50;96264.22;;;10.71;86.88
8340;BME280;4207;49.314;7.162;2024-03-29T11:13:26;96272.97;;;10.71;86.64
8340;BME280;4207;49.314;7.162;2024-03-29T11:15:56;96284.13;;;10.65;86.29
8340;BME280;4207;49.314;7.162;2024-03-29T11:18:26;96280.25;;;10.54;86.75
8340;BME280;4207;49.314;7.162;2024-03-29T11:20:55;96272.88;;;10.59;86.91
8340;BME280;4207;49.314;7.162;2024-03-29T11:23:26;96265.56;;;10.48;86.63
8340;BME280;4207;49.314;7.162;2024-03-29T11:25:54;96257.47;;;10.44;86.93
8340;BME280;4207;49.314;7.162;2024-03-29T11:28:26;96253.53;;;10.50;86.67
8340;BME280;4207;49.314;7.162;2024-03-29T11:30:58;96275.44;;;10.47;86.71
8340;BME280;4207;49.314;7.162;2024-03-29T11:33:31;96264.94;;;10.51;86.85
8340;BME280;4207;49.314;7.162;2024-03-29T11:36:00;96276.03;;;10.53;87.34
8340;BME280;4207;49.314;7.162;2024-03-29T11:38:31;96287.72;;;10.60;86.52
8340;BME280;4207;49.314;7.162;2024-03-29T11:41:03;96285.06;;;10.60;86.60
8340;BME280;4207;49.314;7.162;2024-03-29T11:43:32;96283.06;;;10.57;86.81
8340;BME280;4207;49.314;7.162;2024-03-29T11:45:59;96289.00;;;10.54;87.01
8340;BME280;4207;49.314;7.162;2024-03-29T11:48:28;96294.81;;;10.56;86.92
8340;BME280;4207;49.314;7.162;2024-03-29T11:50:57;96299.81;;;10.49;87.07
8340;BME280;4207;49.314;7.162;2024-03-29T11:53:24;96298.72;;;10.59;86.94
8340;BME280;4207;49.314;7.162;2024-03-29T11:55:53;96301.63;;;10.66;86.92
8340;BME280;4207;49.314;7.162;2024-03-29T11:58:21;96310.25;;;10.63;87.10
8340;BME280;4207;49.314;7.162;2024-03-29T12:00:50;96320.59;;;10.64;86.99
8340;BME280;4207;49.314;7.162;2024-03-29T12:03:18;96328.72;;;10.59;86.92
8340;BME280;4207;49.314;7.162;2024-03-29T12:05:46;96327.97;;;10.59;87.14
8340;BME280;4207;49.314;7.162;2024-03-29T12:08:14;96332.81;;;10.48;87.38
8340;BME280;4207;49.314;7.162;2024-03-29T12:10:41;96332.19;;;10.51;87.68
8340;BME280;4207;49.314;7.162;2024-03-29T12:13:08;96348.34;;;10.38;88.60
8340;BME280;4207;49.314;7.162;2024-03-29T12:15:34;96350.34;;;10.49;88.45
8340;BME280;4207;49.314;7.162;2024-03-29T12:18:04;96355.66;;;10.49;88.57
8340;BME280;4207;49.314;7.162;2024-03-29T12:20:31;96355.34;;;10.42;88.78
8340;BME280;4207;49.314;7.162;2024-03-29T12:22:59;96340.78;;;10.48;88.81
8340;BME280;4207;49.314;7.162;2024-03-29T12:25:27;96347.34;;;10.59;88.38
8340;BME280;4207;49.314;7.162;2024-03-29T12:27:54;96332.09;;;10.77;87.86
8340;BME280;4207;49.314;7.162;2024-03-29T12:30:22;96340.28;;;10.63;87.77
8340;BME280;4207;49.314;7.162;2024-03-29T12:32:50;96333.53;;;10.74;87.29
8340;BME280;4207;49.314;7.162;2024-03-29T12:35:28;96327.00;;;10.63;87.64
8340;BME280;4207;49.314;7.162;2024-03-29T12:37:57;96330.41;;;10.72;87.03
8340;BME280;4207;49.314;7.162;2024-03-29T12:40:25;96339.03;;;10.69;86.86
8340;BME280;4207;49.314;7.162;2024-03-29T12:42:54;96339.00;;;10.78;87.16
8340;BME280;4207;49.314;7.162;2024-03-29T12:45:22;96327.19;;;10.96;85.56
8340;BME280;4207;49.314;7.162;2024-03-29T12:47:49;96328.03;;;10.80;86.01
8340;BME280;4207;49.314;7.162;2024-03-29T12:50:24;96333.31;;;10.88;85.76
8340;BME280;4207;49.314;7.162;2024-03-29T12:52:54;96332.53;;;10.88;85.74
8340;BME280;4207;49.314;7.162;2024-03-29T12:55:21;96331.59;;;10.84;86.35
8340;BME280;4207;49.314;7.162;2024-03-29T12:57:48;96329.25;;;10.91;86.29
8340;BME280;4207;49.314;7.162;2024-03-29T13:00:18;96331.06;;;10.99;85.50
8340;BME280;4207;49.314;7.162;2024-03-29T13:02:45;96338.13;;;10.95;85.71
8340;BME280;4207;49.314;7.162;2024-03-29T13:05:12;96335.16;;;10.96;86.12
8340;BME280;4207;49.314;7.162;2024-03-29T13:07:40;96339.16;;;11.11;85.74
8340;BME280;4207;49.314;7.162;2024-03-29T13:10:09;96343.84;;;11.14;85.88
8340;BME280;4207;49.314;7.162;2024-03-29T13:12:39;96337.75;;;11.13;85.62
8340;BME280;4207;49.314;7.162;2024-03-29T13:15:16;96341.00;;;11.19;85.17
8340;BME280;4207;49.314;7.162;2024-03-29T13:17:44;96342.59;;;11.11;84.41
8340;BME280;4207;49.314;7.162;2024-03-29T13:20:14;96341.34;;;11.09;84.26
8340;BME280;4207;49.314;7.162;2024-03-29T13:22:42;96343.09;;;11.05;85.04
8340;BME280;4207;49.314;7.162;2024-03-29T13:25:13;96338.22;;;11.07;84.52
8340;BME280;4207;49.314;7.162;2024-03-29T13:27:41;96336.03;;;11.09;83.50
8340;BME280;4207;49.314;7.162;2024-03-29T13:30:09;96335.75;;;11.02;82.60
8340;BME280;4207;49.314;7.162;2024-03-29T13:32:38;96330.47;;;10.93;82.57